createdAt,value
2022-08-05T00:01:36.534Z,102212.84
2022-08-05T00:04:17.145Z,102208.81
2022-08-05T00:06:47.573Z,102206.44
2022-08-05T00:09:20.414Z,102210.13
2022-08-05T00:11:55.836Z,102208.13
2022-08-05T00:14:31.379Z,102201.91
2022-08-05T00:17:02.064Z,102207.28
2022-08-05T00:19:32.790Z,102206.44
2022-08-05T00:22:02.400Z,102215.50
2022-08-05T00:24:31.186Z,102207.09
2022-08-05T00:27:01.739Z,102210.44
2022-08-05T00:29:38.064Z,102209.22
2022-08-05T00:32:13.013Z,102203.63
2022-08-05T00:35:03.982Z,102207.94
2022-08-05T00:37:50.617Z,102216.00
2022-08-05T00:40:27.930Z,102216.56
2022-08-05T00:43:00.865Z,102219.22
2022-08-05T00:45:38.511Z,102215.84
2022-08-05T00:48:11.550Z,102223.91
2022-08-05T00:50:41.218Z,102228.56
2022-08-05T00:53:44.955Z,102233.78
2022-08-05T00:55:58.632Z,102229.13
2022-08-05T00:58:28.047Z,102229.97
2022-08-05T01:00:56.450Z,102225.25
2022-08-05T01:03:33.392Z,102244.03
2022-08-05T01:06:02.636Z,102240.38
2022-08-05T01:08:42.974Z,102243.53
2022-08-05T01:11:22.629Z,102244.66
2022-08-05T01:14:08.481Z,102244.47
2022-08-05T01:16:41.687Z,102240.22
2022-08-05T01:19:17.458Z,102240.22
2022-08-05T01:21:59.856Z,102231.19
2022-08-05T01:24:51.285Z,102235.50
2022-08-05T01:27:33.048Z,102255.28
2022-08-05T01:30:03.722Z,102243.53
2022-08-05T01:32:33.384Z,102240.56
2022-08-05T01:35:04.230Z,102247.63
2022-08-05T01:37:44.269Z,102240.22
2022-08-05T01:40:12.839Z,102253.50
2022-08-05T01:42:41.190Z,102247.44
2022-08-05T01:45:11.543Z,102242.56
2022-08-05T01:47:43.434Z,102250.22
2022-08-05T01:50:15.328Z,102248.31
2022-08-05T01:52:44.209Z,102253.13
2022-08-05T01:55:13.045Z,102252.06
2022-08-05T01:58:09.772Z,102254.38
2022-08-05T02:00:31.610Z,102243.28
2022-08-05T02:03:03.729Z,102249.94
2022-08-05T02:05:34.359Z,102245.19
2022-08-05T02:08:04.267Z,102242.81
2022-08-05T02:10:49.750Z,102243.81
2022-08-05T02:13:20.131Z,102246.25
2022-08-05T02:15:58.915Z,102237.38
2022-08-05T02:18:34.651Z,102244.72
2022-08-05T02:21:05.777Z,102234.44
2022-08-05T02:23:43.782Z,102240.22
2022-08-05T02:26:14.913Z,102240.84
2022-08-05T02:28:46.030Z,102244.81
2022-08-05T02:31:16.915Z,102245.97
2022-08-05T02:33:57.173Z,102249.09
2022-08-05T02:36:31.612Z,102248.00
2022-08-05T02:39:00.130Z,102256.63
2022-08-05T02:41:42.830Z,102270.75
2022-08-05T02:44:16.653Z,102261.50
2022-08-05T02:46:58.730Z,102258.69
2022-08-05T02:49:36.701Z,102266.34
2022-08-05T02:52:07.573Z,102260.03
2022-08-05T02:54:37.430Z,102261.75
2022-08-05T02:57:10.259Z,102262.31
2022-08-05T02:59:55.258Z,102260.81
2022-08-05T03:02:27.417Z,102264.56
2022-08-05T03:04:56.134Z,102261.78
2022-08-05T03:08:00.115Z,102260.06
2022-08-05T03:10:13.243Z,102261.91
2022-08-05T03:12:41.530Z,102263.88
2022-08-05T03:15:12.436Z,102268.81
2022-08-05T03:17:44.825Z,102274.44
2022-08-05T03:20:13.841Z,102274.75
2022-08-05T03:22:44.030Z,102276.59
2022-08-05T03:25:32.611Z,102278.84
2022-08-05T03:28:07.199Z,102280.69
2022-08-05T03:30:36.679Z,102277.31
2022-08-05T03:33:07.759Z,102268.28
2022-08-05T03:35:40.945Z,102278.28
2022-08-05T03:38:11.710Z,102282.97
2022-08-05T03:40:41.668Z,102277.59
2022-08-05T03:43:59.131Z,102286.22
2022-08-05T03:46:01.810Z,102286.63
2022-08-05T03:48:35.354Z,102286.34
2022-08-05T03:52:37.118Z,102288.59
2022-08-05T03:55:50.443Z,102284.53
2022-08-05T03:56:48.354Z,102285.50
2022-08-05T03:59:20.690Z,102297.31
2022-08-05T04:01:50.303Z,102279.28
2022-08-05T04:04:21.106Z,102294.63
2022-08-05T04:06:51.340Z,102298.88
2022-08-05T04:09:26.096Z,102306.03
2022-08-05T04:11:56.372Z,102292.53
2022-08-05T04:14:29.978Z,102292.97
2022-08-05T04:17:00.768Z,102298.72
2022-08-05T04:19:31.634Z,102295.34
2022-08-05T04:22:09.576Z,102294.50
2022-08-05T04:24:44.486Z,102299.88
2022-08-05T04:27:41.721Z,102308.03
2022-08-05T04:30:09.884Z,102303.78
2022-08-05T04:32:37.974Z,102305.31
2022-08-05T04:35:17.638Z,102318.97
2022-08-05T04:38:02.370Z,102314.91
2022-08-05T04:40:36.036Z,102321.53
2022-08-05T04:43:04.333Z,102321.81
2022-08-05T04:45:48.280Z,102325.72
2022-08-05T04:48:27.122Z,102327.97
2022-08-05T04:51:03.813Z,102334.41
2022-08-05T04:53:39.786Z,102340.34
2022-08-05T04:56:15.367Z,102340.06
2022-08-05T04:58:56.892Z,102350.78
2022-08-05T05:01:33.440Z,102348.38
2022-08-05T05:04:13.319Z,102351.06
2022-08-05T05:06:49.089Z,102351.91
2022-08-05T05:09:20.160Z,102360.09
2022-08-05T05:11:54.355Z,102356.13
2022-08-05T05:14:27.895Z,102353.47
2022-08-05T05:17:00.033Z,102360.22
2022-08-05T05:19:36.341Z,102364.56
2022-08-05T05:22:24.668Z,102363.16
2022-08-05T05:24:57.067Z,102368.38
2022-08-05T05:27:44.214Z,102369.06
2022-08-05T05:30:15.642Z,102366.78
2022-08-05T05:33:00.422Z,102366.47
2022-08-05T05:35:34.256Z,102367.91
2022-08-05T05:38:09.276Z,102381.28
2022-08-05T05:40:47.976Z,102380.00
2022-08-05T05:43:28.209Z,102381.69
2022-08-05T05:46:13.765Z,102386.44
2022-08-05T05:48:44.797Z,102381.94
2022-08-05T05:51:19.845Z,102384.47
2022-08-05T05:53:57.709Z,102389.84
2022-08-05T05:56:32.936Z,102386.19
2022-08-05T05:59:05.494Z,102390.94
2022-08-05T06:01:37.426Z,102401.06
2022-08-05T06:04:08.076Z,102404.88
2022-08-05T06:06:36.426Z,102403.28
2022-08-05T06:09:06.233Z,102399.34
2022-08-05T06:11:39.366Z,102406.09
2022-08-05T06:14:07.727Z,102408.16
2022-08-05T06:16:37.241Z,102410.81
2022-08-05T06:19:07.580Z,102420.47
2022-08-05T06:21:38.714Z,102412.50
2022-08-05T06:24:12.587Z,102420.38
2022-08-05T06:26:51.270Z,102430.19
2022-08-05T06:29:25.267Z,102430.25
2022-08-05T06:32:21.331Z,102435.03
2022-08-05T06:34:57.433Z,102442.50
2022-08-05T06:37:56.224Z,102447.13
2022-08-05T06:40:17.905Z,102449.03
2022-08-05T06:42:46.549Z,102443.03
2022-08-05T06:45:21.027Z,102448.09
2022-08-05T06:48:37.246Z,102451.47
2022-08-05T06:50:37.669Z,102455.38
2022-08-05T06:53:19.641Z,102444.00
2022-08-05T06:55:53.187Z,102445.91
2022-08-05T06:58:35.311Z,102445.63
2022-08-05T07:01:05.443Z,102452.34
2022-08-05T07:03:33.646Z,102453.59
2022-08-05T07:06:05.818Z,102458.19
2022-08-05T07:08:42.832Z,102462.94
2022-08-05T07:11:15.497Z,102473.03
2022-08-05T07:14:01.313Z,102471.09
2022-08-05T07:18:01.615Z,102470.28
2022-08-05T07:22:28.976Z,102477.72
2022-08-05T07:25:23.450Z,102482.84
2022-08-05T07:27:58.017Z,102498.19
2022-08-05T07:30:32.562Z,102491.63
2022-08-05T07:33:05.549Z,102494.31
2022-08-05T07:36:02.940Z,102496.28
2022-08-05T07:38:33.491Z,102505.94
2022-08-05T07:41:35.124Z,102508.94
2022-08-05T07:43:56.623Z,102500.00
2022-08-05T07:46:26.599Z,102508.00
2022-08-05T07:49:04.535Z,102513.47
2022-08-05T07:51:37.145Z,102514.31
2022-08-05T07:54:10.376Z,102516.81
2022-08-05T07:57:01.582Z,102520.22
2022-08-05T07:59:38.094Z,102528.97
2022-08-05T08:02:16.082Z,102535.28
2022-08-05T08:04:48.785Z,102543.25
2022-08-05T08:07:17.827Z,102536.47
2022-08-05T08:09:46.631Z,102540.66
2022-08-05T08:12:35.549Z,102539.66
2022-08-05T08:15:14.292Z,102539.50
2022-08-05T08:17:49.844Z,102549.94
2022-08-05T08:20:43.978Z,102543.41
2022-08-05T08:24:01.070Z,102542.63
2022-08-05T08:26:02.688Z,102544.53
2022-08-05T08:28:36.334Z,102561.88
2022-08-05T08:31:10.054Z,102562.25
2022-08-05T08:33:45.894Z,102555.47
2022-08-05T08:36:29.690Z,102561.56
2022-08-05T08:39:04.923Z,102561.25
2022-08-05T08:41:52.275Z,102568.31
2022-08-05T08:45:25.004Z,102562.59
2022-08-05T08:48:06.233Z,102567.53
2022-08-05T08:50:30.725Z,102570.66
2022-08-05T08:53:03.387Z,102582.66
2022-08-05T08:56:03.653Z,102572.59
2022-08-05T08:58:43.389Z,102572.69
2022-08-05T09:01:18.385Z,102583.97
2022-08-05T09:03:55.158Z,102593.19
2022-08-05T09:06:29.370Z,102589.00
2022-08-05T09:08:59.513Z,102593.03
2022-08-05T09:11:52.861Z,102581.56
2022-08-05T09:14:58.425Z,102599.78
2022-08-05T09:17:09.549Z,102589.66
2022-08-05T09:20:02.541Z,102593.66
2022-08-05T09:23:05.141Z,102590.66
2022-08-05T09:26:01.958Z,102600.56
2022-08-05T09:28:32.004Z,102602.03
2022-08-05T09:31:22.151Z,102590.69
2022-08-05T09:33:52.449Z,102595.13
2022-08-05T09:36:27.823Z,102600.25
2022-08-05T09:39:03.764Z,102615.47
2022-08-05T09:41:58.346Z,102601.50
2022-08-05T09:44:38.525Z,102597.59
2022-08-05T09:47:13.966Z,102602.97
2022-08-05T09:50:01.226Z,102591.53
2022-08-05T09:52:33.794Z,102594.06
2022-08-05T09:55:06.299Z,102591.56
2022-08-05T09:57:39.686Z,102599.38
2022-08-05T10:00:13.626Z,102603.78
2022-08-05T10:02:43.409Z,102595.38
2022-08-05T10:05:13.966Z,102602.44
2022-08-05T10:08:36.106Z,102591.50
2022-08-05T10:10:41.568Z,102588.66
2022-08-05T10:13:10.134Z,102581.91
2022-08-05T10:15:41.384Z,102592.69
2022-08-05T10:18:12.563Z,102600.63
2022-08-05T10:20:43.029Z,102591.72
2022-08-05T10:23:34.339Z,102603.81
2022-08-05T10:26:06.972Z,102592.22
2022-08-05T10:28:36.445Z,102603.81
2022-08-05T10:32:49.238Z,102601.47
2022-08-05T10:33:54.793Z,102599.78
2022-08-05T10:36:26.036Z,102590.84
2022-08-05T10:39:01.039Z,102611.56
2022-08-05T10:41:45.227Z,102605.03
2022-08-05T10:44:18.535Z,102602.84
2022-08-05T10:46:50.671Z,102602.97
2022-08-05T10:49:27.217Z,102607.09
2022-08-05T10:52:05.153Z,102612.41
2022-08-05T10:55:03.997Z,102607.31
2022-08-05T10:57:33.907Z,102610.25
2022-08-05T11:00:19.153Z,102609.81
2022-08-05T11:03:25.979Z,102611.97
2022-08-05T11:06:15.579Z,102621.53
2022-08-05T11:09:32.285Z,102626.72
2022-08-05T11:12:50.369Z,102619.72
2022-08-05T11:16:00.499Z,102616.56
2022-08-05T11:18:25.828Z,102620.72
2022-08-05T11:20:54.650Z,102626.81
2022-08-05T11:24:05.379Z,102630.91
2022-08-05T11:26:37.947Z,102627.84
2022-08-05T11:29:14.373Z,102633.81
2022-08-05T11:31:58.906Z,102639.44
2022-08-05T11:34:52.214Z,102621.13
2022-08-05T11:38:30.408Z,102650.75
2022-08-05T11:41:01.354Z,102648.53
2022-08-05T11:44:04.787Z,102651.09
2022-08-05T11:46:35.611Z,102642.31
2022-08-05T11:49:04.505Z,102651.78
2022-08-05T11:51:44.256Z,102661.38
2022-08-05T11:54:33.431Z,102648.63
2022-08-05T11:57:07.987Z,102649.56
2022-08-05T11:59:41.241Z,102660.13
2022-08-05T12:02:31.451Z,102652.53
2022-08-05T12:05:01.197Z,102648.06
2022-08-05T12:08:03.301Z,102651.53
2022-08-05T12:10:43.374Z,102652.09
2022-08-05T12:13:27.924Z,102655.34
2022-08-05T12:16:15.049Z,102670.13
2022-08-05T12:18:49.086Z,102658.25
2022-08-05T12:21:23.598Z,102657.81
2022-08-05T12:23:56.776Z,102668.31
2022-08-05T12:26:26.537Z,102661.53
2022-08-05T12:28:54.704Z,102679.66
2022-08-05T12:31:23.440Z,102671.38
2022-08-05T12:34:09.787Z,102679.06
2022-08-05T12:36:49.105Z,102674.13
2022-08-05T12:39:17.676Z,102681.97
2022-08-05T12:41:46.603Z,102681.59
2022-08-05T12:44:28.697Z,102686.78
2022-08-05T12:47:02.556Z,102683.84
2022-08-05T12:50:03.388Z,102688.53
2022-08-05T12:52:38.158Z,102693.91
2022-08-05T12:55:22.224Z,102674.13
2022-08-05T12:58:50.806Z,102696.03
2022-08-05T13:02:00.324Z,102698.19
2022-08-05T13:03:42.289Z,102697.50
2022-08-05T13:06:18.098Z,102707.69
2022-08-05T13:08:50.924Z,102695.38
2022-08-05T13:11:25.637Z,102700.56
2022-08-05T13:14:20.080Z,102703.34
2022-08-05T13:16:53.955Z,102708.81
2022-08-05T13:19:51.000Z,102712.56
2022-08-05T13:22:27.743Z,102706.22
2022-08-05T13:25:00.653Z,102709.50
2022-08-05T13:27:38.438Z,102707.50
2022-08-05T13:30:33.536Z,102707.38
2022-08-05T13:33:01.373Z,102717.22
2022-08-05T13:35:47.448Z,102715.06
2022-08-05T13:38:30.982Z,102719.94
2022-08-05T13:41:04.950Z,102713.66
2022-08-05T13:43:44.271Z,102730.00
2022-08-05T13:46:50.678Z,102723.72
2022-08-05T13:49:13.731Z,102731.47
2022-08-05T13:51:46.220Z,102710.34
2022-08-05T13:54:21.115Z,102717.63
2022-08-05T13:56:54.187Z,102716.97
2022-08-05T13:59:24.346Z,102717.41
2022-08-05T14:01:57.804Z,102712.53
2022-08-05T14:04:49.446Z,102702.66
2022-08-05T14:07:56.907Z,102715.53
2022-08-05T14:10:12.519Z,102720.00
2022-08-05T14:12:42.854Z,102725.19
2022-08-05T14:16:04.846Z,102721.50
2022-08-05T14:18:03.952Z,102727.88
2022-08-05T14:20:33.153Z,102727.06
2022-08-05T14:23:01.475Z,102727.03
2022-08-05T14:25:32.355Z,102724.56
2022-08-05T14:28:03.985Z,102725.13
2022-08-05T14:30:32.478Z,102728.78
2022-08-05T14:33:04.707Z,102734.72
2022-08-05T14:35:50.229Z,102713.78
2022-08-05T14:38:32.738Z,102727.06
2022-08-05T14:41:07.656Z,102719.66
2022-08-05T14:43:59.191Z,102718.56
2022-08-05T14:46:28.316Z,102719.56
2022-08-05T14:48:57.964Z,102718.50
2022-08-05T14:51:31.047Z,102716.94
2022-08-05T14:54:26.479Z,102711.50
2022-08-05T14:56:51.710Z,102714.88
2022-08-05T14:59:24.197Z,102723.88
2022-08-05T15:01:54.239Z,102714.47
2022-08-05T15:04:27.402Z,102711.97
2022-08-05T15:06:58.208Z,102714.88
2022-08-05T15:09:52.315Z,102711.09
2022-08-05T15:12:18.351Z,102720.78
2022-08-05T15:14:49.587Z,102706.06
2022-08-05T15:17:46.896Z,102705.00
2022-08-05T15:20:15.542Z,102694.31
2022-08-05T15:22:54.004Z,102709.81
2022-08-05T15:25:51.406Z,102713.38
2022-08-05T15:28:14.630Z,102716.06
2022-08-05T15:30:43.825Z,102713.06
2022-08-05T15:34:04.045Z,102718.47
2022-08-05T15:36:05.706Z,102714.16
2022-08-05T15:38:47.943Z,102714.56
2022-08-05T15:41:21.267Z,102707.75
2022-08-05T15:43:54.893Z,102707.56
2022-08-05T15:46:24.422Z,102706.00
2022-08-05T15:48:58.534Z,102715.44
2022-08-05T15:52:09.822Z,102712.66
2022-08-05T15:54:17.678Z,102709.31
2022-08-05T15:56:45.831Z,102698.47
2022-08-05T15:59:21.611Z,102698.88
2022-08-05T16:01:52.766Z,102704.69
2022-08-05T16:04:25.383Z,102705.50
2022-08-05T16:06:55.681Z,102710.91
2022-08-05T16:09:24.878Z,102722.03
2022-08-05T16:11:53.986Z,102719.31
2022-08-05T16:14:23.944Z,102716.38
2022-08-05T16:16:52.312Z,102716.34
2022-08-05T16:20:02.664Z,102717.03
2022-08-05T16:22:10.571Z,102721.59
2022-08-05T16:24:39.978Z,102722.50
2022-08-05T16:27:16.010Z,102725.84
2022-08-05T16:29:50.890Z,102733.31
2022-08-05T16:32:28.406Z,102721.22
2022-08-05T16:34:58.650Z,102728.72
2022-08-05T16:38:16.051Z,102735.38
2022-08-05T16:40:26.528Z,102727.47
2022-08-05T16:42:57.662Z,102727.53
2022-08-05T16:46:06.811Z,102712.19
2022-08-05T16:48:25.403Z,102722.03
2022-08-05T16:50:54.449Z,102730.53
2022-08-05T16:53:32.539Z,102729.59
2022-08-05T16:56:11.681Z,102722.22
2022-08-05T16:58:40.778Z,102730.91
2022-08-05T17:01:10.838Z,102725.03
2022-08-05T17:03:39.060Z,102718.81
2022-08-05T17:06:07.510Z,102725.47
2022-08-05T17:08:53.304Z,102729.19
2022-08-05T17:11:23.491Z,102726.53
2022-08-05T17:14:00.662Z,102723.69
2022-08-05T17:16:36.602Z,102723.72
2022-08-05T17:19:07.750Z,102724.41
2022-08-05T17:21:39.645Z,102728.38
2022-08-05T17:24:19.553Z,102726.09
2022-08-05T17:26:57.351Z,102724.50
2022-08-05T17:29:33.902Z,102724.41
2022-08-05T17:32:11.927Z,102725.09
2022-08-05T17:34:47.554Z,102722.78
2022-08-05T17:37:39.417Z,102730.19
2022-08-05T17:40:05.817Z,102730.13
2022-08-05T17:42:41.656Z,102742.50
2022-08-05T17:45:20.826Z,102730.72
2022-08-05T17:47:54.643Z,102742.19
2022-08-05T17:50:29.045Z,102747.72
2022-08-05T17:53:00.146Z,102732.19
2022-08-05T17:55:38.184Z,102734.09
2022-08-05T17:58:12.481Z,102742.34
2022-08-05T18:00:45.195Z,102749.00
2022-08-05T18:03:58.612Z,102753.94
2022-08-05T18:06:11.275Z,102742.47
2022-08-05T18:08:44.846Z,102751.56
2022-08-05T18:11:23.663Z,102750.50
2022-08-05T18:14:03.576Z,102759.97
2022-08-05T18:16:32.873Z,102751.69
2022-08-05T18:19:02.550Z,102739.91
2022-08-05T18:22:08.805Z,102768.41
2022-08-05T18:24:18.762Z,102761.56
2022-08-05T18:26:49.183Z,102764.25
2022-08-05T18:29:17.416Z,102757.69
2022-08-05T18:32:06.306Z,102767.09
2022-08-05T18:34:41.062Z,102760.66
2022-08-05T18:37:12.135Z,102766.31
2022-08-05T18:40:31.434Z,102765.91
2022-08-05T18:42:29.568Z,102774.16
2022-08-05T18:44:57.760Z,102777.38
2022-08-05T18:47:28.304Z,102775.66
2022-08-05T18:50:18.221Z,102777.06
2022-08-05T18:52:50.734Z,102778.66
2022-08-05T18:55:19.908Z,102774.06
2022-08-05T18:57:53.208Z,102774.16
2022-08-05T19:00:29.169Z,102782.25
2022-08-05T19:03:03.937Z,102783.63
2022-08-05T19:06:11.671Z,102779.53
2022-08-05T19:08:30.999Z,102788.44
2022-08-05T19:11:02.785Z,102790.59
2022-08-05T19:13:35.692Z,102788.84
2022-08-05T19:16:05.686Z,102789.50
2022-08-05T19:18:53.281Z,102785.81
2022-08-05T19:21:27.644Z,102779.03
2022-08-05T19:24:06.839Z,102789.09
2022-08-05T19:26:54.398Z,102785.75
2022-08-05T19:29:35.502Z,102784.75
2022-08-05T19:32:04.514Z,102785.41
2022-08-05T19:34:32.657Z,102790.50
2022-08-05T19:37:02.326Z,102785.75
2022-08-05T19:39:31.906Z,102802.53
2022-08-05T19:42:15.356Z,102793.44
2022-08-05T19:44:44.552Z,102797.59
2022-08-05T19:47:16.046Z,102801.63
2022-08-05T19:49:45.183Z,102800.94
2022-08-05T19:52:30.611Z,102791.31
2022-08-05T19:55:00.638Z,102800.72
2022-08-05T19:58:00.635Z,102801.00
2022-08-05T20:00:23.050Z,102808.63
2022-08-05T20:02:51.143Z,102802.41
2022-08-05T20:05:24.393Z,102808.78
2022-08-05T20:07:58.929Z,102803.31
2022-08-05T20:10:27.396Z,102818.84
2022-08-05T20:12:57.088Z,102818.34
2022-08-05T20:15:52.158Z,102828.25
2022-08-05T20:18:33.583Z,102829.09
2022-08-05T20:21:01.389Z,102838.47
2022-08-05T20:23:40.006Z,102843.31
2022-08-05T20:26:18.294Z,102844.59
2022-08-05T20:28:48.593Z,102849.31
2022-08-05T20:31:17.121Z,102854.13
2022-08-05T20:33:45.735Z,102849.88
2022-08-05T20:36:16.382Z,102849.06
2022-08-05T20:38:54.337Z,102849.88
2022-08-05T20:41:43.284Z,102853.91
2022-08-05T20:44:29.788Z,102854.50
2022-08-05T20:46:59.706Z,102864.56
2022-08-05T20:49:27.854Z,102867.25
2022-08-05T20:51:57.587Z,102867.59
2022-08-05T20:54:43.442Z,102863.50
2022-08-05T20:57:24.859Z,102864.34
2022-08-05T21:00:19.783Z,102867.31
2022-08-05T21:02:52.204Z,102872.44
2022-08-05T21:05:20.509Z,102876.16
2022-08-05T21:07:52.217Z,102869.09
2022-08-05T21:10:22.182Z,102866.22
2022-08-05T21:12:57.753Z,102859.19
2022-08-05T21:15:33.671Z,102867.41
2022-08-05T21:18:02.244Z,102877.16
2022-08-05T21:20:33.534Z,102872.78
2022-08-05T21:23:03.132Z,102878.44
2022-08-05T21:25:33.700Z,102879.91
2022-08-05T21:28:03.238Z,102875.66
2022-08-05T21:30:31.631Z,102880.19
2022-08-05T21:32:59.948Z,102877.34
2022-08-05T21:35:56.045Z,102869.97
2022-08-05T21:38:19.135Z,102883.44
2022-08-05T21:40:48.722Z,102886.41
2022-08-05T21:43:24.329Z,102894.78
2022-08-05T21:45:56.350Z,102898.75
2022-08-05T21:48:26.019Z,102902.03
2022-08-05T21:50:54.646Z,102895.56
2022-08-05T21:53:24.837Z,102889.03
2022-08-05T21:56:09.812Z,102889.25
2022-08-05T21:58:48.405Z,102904.38
2022-08-05T22:01:25.428Z,102906.06
2022-08-05T22:03:54.072Z,102902.97
2022-08-05T22:06:35.199Z,102906.94
2022-08-05T22:09:13.858Z,102903.81
2022-08-05T22:11:47.122Z,102913.19
2022-08-05T22:14:33.000Z,102917.00
2022-08-05T22:17:05.395Z,102915.34
2022-08-05T22:20:03.235Z,102912.22
2022-08-05T22:22:27.333Z,102907.72
2022-08-05T22:25:18.147Z,102912.66
2022-08-05T22:28:11.379Z,102911.84
2022-08-05T22:30:55.458Z,102918.34
2022-08-05T22:33:55.650Z,102922.72
2022-08-05T22:36:15.138Z,102912.69
2022-08-05T22:38:48.260Z,102912.69
2022-08-05T22:42:04.153Z,102912.22
2022-08-05T22:44:07.917Z,102911.38
2022-08-05T22:46:39.468Z,102923.69
2022-08-05T22:49:08.174Z,102915.09
2022-08-05T22:52:04.740Z,102912.09
2022-08-05T22:54:35.041Z,102916.06
2022-08-05T22:57:03.527Z,102929.50
2022-08-05T22:59:48.287Z,102922.44
2022-08-05T23:02:29.263Z,102926.09
2022-08-05T23:05:01.940Z,102937.25
2022-08-05T23:07:45.458Z,102938.09
2022-08-05T23:10:20.167Z,102932.28
2022-08-05T23:12:51.459Z,102942.59
2022-08-05T23:15:27.005Z,102951.50
2022-08-05T23:18:00.761Z,102947.69
2022-08-05T23:20:31.048Z,102949.53
2022-08-05T23:22:59.213Z,102955.59
2022-08-05T23:25:53.362Z,102960.09
2022-08-05T23:28:17.406Z,102953.88
2022-08-05T23:30:53.799Z,102948.47
2022-08-05T23:34:02.909Z,102950.72
2022-08-05T23:36:13.394Z,102949.16
2022-08-05T23:38:43.062Z,102950.44
2022-08-05T23:41:12.262Z,102959.16
2022-08-05T23:44:05.804Z,102946.72
2022-08-05T23:46:31.158Z,102952.38
2022-08-05T23:49:01.926Z,102948.25
2022-08-05T23:52:01.261Z,102959.28
2022-08-05T23:54:34.167Z,102956.84
2022-08-05T23:57:06.654Z,102959.66
